sensor_id;sensor_type;location;lat;lon;timestamp;P1;durP1;ratioP1;P2;durP2;ratioP2
75191;SDS011;63771;52.580;9.734;2022-12-11T00:00:38;16.03;;;10.23;;
75191;SDS011;63771;52.580;9.734;2022-12-11T00:03:03;14.63;;;8.95;;
75191;SDS011;63771;52.580;9.734;2022-12-11T00:05:29;14.67;;;9.73;;
75191;SDS011;63771;52.580;9.734;2022-12-11T00:07:54;14.33;;;9.50;;
75191;SDS011;63771;52.580;9.734;2022-12-11T00:10:19;14.10;;;8.37;;
75191;SDS011;63771;52.580;9.734;2022-12-11T00:12:45;16.67;;;8.90;;
75191;SDS011;63771;52.580;9.734;2022-12-11T00:15:10;15.50;;;8.47;;
75191;SDS011;63771;52.580;9.734;2022-12-11T00:17:35;16.60;;;10.00;;
75191;SDS011;63771;52.580;9.734;2022-12-11T00:20:01;14.18;;;9.10;;
75191;SDS011;63771;52.580;9.734;2022-12-11T00:22:28;13.73;;;9.75;;
75191;SDS011;63771;52.580;9.734;2022-12-11T00:24:54;16.73;;;9.15;;
75191;SDS011;63771;52.580;9.734;2022-12-11T00:27:19;16.03;;;9.57;;
75191;SDS011;63771;52.580;9.734;2022-12-11T00:29:44;13.87;;;8.53;;
75191;SDS011;63771;52.580;9.734;2022-12-11T00:32:10;15.10;;;8.90;;
75191;SDS011;63771;52.580;9.734;2022-12-11T00:34:35;11.37;;;7.27;;
75191;SDS011;63771;52.580;9.734;2022-12-11T00:37:00;12.70;;;7.50;;
75191;SDS011;63771;52.580;9.734;2022-12-11T00:39:26;9.83;;;7.60;;
75191;SDS011;63771;52.580;9.734;2022-12-11T00:41:51;12.97;;;8.53;;
75191;SDS011;63771;52.580;9.734;2022-12-11T00:44:16;13.63;;;7.73;;
75191;SDS011;63771;52.580;9.734;2022-12-11T00:46:42;14.70;;;7.97;;
75191;SDS011;63771;52.580;9.734;2022-12-11T00:49:07;12.60;;;6.45;;
75191;SDS011;63771;52.580;9.734;2022-12-11T00:51:32;12.10;;;7.07;;
75191;SDS011;63771;52.580;9.734;2022-12-11T00:53:58;12.43;;;7.70;;
75191;SDS011;63771;52.580;9.734;2022-12-11T00:56:23;10.60;;;6.37;;
75191;SDS011;63771;52.580;9.734;2022-12-11T00:58:49;10.02;;;6.55;;
75191;SDS011;63771;52.580;9.734;2022-12-11T01:01:16;12.35;;;8.15;;
75191;SDS011;63771;52.580;9.734;2022-12-11T01:03:43;10.50;;;6.90;;
75191;SDS011;63771;52.580;9.734;2022-12-11T01:06:17;11.98;;;6.78;;
75191;SDS011;63771;52.580;9.734;2022-12-11T01:08:44;10.65;;;7.68;;
75191;SDS011;63771;52.580;9.734;2022-12-11T01:11:11;11.10;;;7.40;;
75191;SDS011;63771;52.580;9.734;2022-12-11T01:13:38;12.88;;;6.95;;
75191;SDS011;63771;52.580;9.734;2022-12-11T01:16:08;11.35;;;7.18;;
75191;SDS011;63771;52.580;9.734;2022-12-11T01:18:36;9.02;;;6.78;;
75191;SDS011;63771;52.580;9.734;2022-12-11T01:21:09;11.68;;;7.82;;
75191;SDS011;63771;52.580;9.734;2022-12-11T01:23:36;10.02;;;6.22;;
75191;SDS011;63771;52.580;9.734;2022-12-11T01:26:09;14.73;;;8.98;;
75191;SDS011;63771;52.580;9.734;2022-12-11T01:28:39;10.63;;;6.43;;
75191;SDS011;63771;52.580;9.734;2022-12-11T01:31:08;10.73;;;6.60;;
75191;SDS011;63771;52.580;9.734;2022-12-11T01:33:34;12.82;;;7.97;;
75191;SDS011;63771;52.580;9.734;2022-12-11T01:36:00;11.02;;;6.75;;
75191;SDS011;63771;52.580;9.734;2022-12-11T01:38:25;11.27;;;7.37;;
75191;SDS011;63771;52.580;9.734;2022-12-11T01:40:51;11.18;;;7.50;;
75191;SDS011;63771;52.580;9.734;2022-12-11T01:43:16;18.92;;;8.77;;
75191;SDS011;63771;52.580;9.734;2022-12-11T01:45:44;12.65;;;7.63;;
75191;SDS011;63771;52.580;9.734;2022-12-11T01:48:16;10.50;;;7.18;;
75191;SDS011;63771;52.580;9.734;2022-12-11T01:51:17;14.32;;;7.95;;
75191;SDS011;63771;52.580;9.734;2022-12-11T01:53:37;15.75;;;7.85;;
75191;SDS011;63771;52.580;9.734;2022-12-11T01:56:06;16.83;;;8.00;;
75191;SDS011;63771;52.580;9.734;2022-12-11T01:58:33;14.05;;;7.63;;
75191;SDS011;63771;52.580;9.734;2022-12-11T02:01:02;12.55;;;8.18;;
75191;SDS011;63771;52.580;9.734;2022-12-11T02:03:27;13.40;;;7.18;;
75191;SDS011;63771;52.580;9.734;2022-12-11T02:05:53;14.35;;;7.90;;
75191;SDS011;63771;52.580;9.734;2022-12-11T02:08:18;10.20;;;6.63;;
75191;SDS011;63771;52.580;9.734;2022-12-11T02:13:40;14.20;;;8.93;;
75191;SDS011;63771;52.580;9.734;2022-12-11T02:16:16;13.27;;;7.40;;
75191;SDS011;63771;52.580;9.734;2022-12-11T02:18:51;13.13;;;7.38;;
75191;SDS011;63771;52.580;9.734;2022-12-11T02:21:25;8.50;;;5.88;;
75191;SDS011;63771;52.580;9.734;2022-12-11T02:27:02;11.80;;;5.97;;
75191;SDS011;63771;52.580;9.734;2022-12-11T02:32:45;10.05;;;6.53;;
75191;SDS011;63771;52.580;9.734;2022-12-11T02:35:38;11.88;;;7.03;;
75191;SDS011;63771;52.580;9.734;2022-12-11T02:38:07;12.77;;;7.45;;
75191;SDS011;63771;52.580;9.734;2022-12-11T02:40:36;13.75;;;8.18;;
75191;SDS011;63771;52.580;9.734;2022-12-11T02:43:05;10.10;;;7.10;;
75191;SDS011;63771;52.580;9.734;2022-12-11T02:45:34;11.75;;;7.28;;
75191;SDS011;63771;52.580;9.734;2022-12-11T02:48:02;10.52;;;7.43;;
75191;SDS011;63771;52.580;9.734;2022-12-11T02:50:29;10.98;;;6.82;;
75191;SDS011;63771;52.580;9.734;2022-12-11T02:52:58;11.73;;;5.95;;
75191;SDS011;63771;52.580;9.734;2022-12-11T02:57:56;12.35;;;6.93;;
75191;SDS011;63771;52.580;9.734;2022-12-11T03:00:28;11.43;;;6.38;;
75191;SDS011;63771;52.580;9.734;2022-12-11T03:02:53;10.13;;;7.37;;
75191;SDS011;63771;52.580;9.734;2022-12-11T03:05:18;9.05;;;7.20;;
75191;SDS011;63771;52.580;9.734;2022-12-11T03:07:44;11.48;;;7.20;;
75191;SDS011;63771;52.580;9.734;2022-12-11T03:10:10;8.97;;;6.80;;
75191;SDS011;63771;52.580;9.734;2022-12-11T03:12:39;11.15;;;6.55;;
75191;SDS011;63771;52.580;9.734;2022-12-11T03:15:09;13.93;;;7.22;;
75191;SDS011;63771;52.580;9.734;2022-12-11T03:17:56;10.82;;;7.65;;
75191;SDS011;63771;52.580;9.734;2022-12-11T03:23:05;11.50;;;7.18;;
75191;SDS011;63771;52.580;9.734;2022-12-11T03:26:13;12.05;;;6.90;;
75191;SDS011;63771;52.580;9.734;2022-12-11T03:28:41;10.10;;;6.28;;
75191;SDS011;63771;52.580;9.734;2022-12-11T03:31:17;10.63;;;6.93;;
75191;SDS011;63771;52.580;9.734;2022-12-11T03:34:10;8.98;;;6.90;;
75191;SDS011;63771;52.580;9.734;2022-12-11T03:36:48;10.43;;;6.40;;
75191;SDS011;63771;52.580;9.734;2022-12-11T03:39:17;13.05;;;7.30;;
75191;SDS011;63771;52.580;9.734;2022-12-11T03:41:48;11.55;;;6.93;;
75191;SDS011;63771;52.580;9.734;2022-12-11T03:44:17;11.15;;;6.90;;
75191;SDS011;63771;52.580;9.734;2022-12-11T03:46:44;11.50;;;7.32;;
75191;SDS011;63771;52.580;9.734;2022-12-11T03:49:14;9.13;;;6.43;;
75191;SDS011;63771;52.580;9.734;2022-12-11T03:51:43;11.55;;;7.47;;
75191;SDS011;63771;52.580;9.734;2022-12-11T03:54:12;11.70;;;6.63;;
75191;SDS011;63771;52.580;9.734;2022-12-11T03:56:38;11.68;;;6.93;;
75191;SDS011;63771;52.580;9.734;2022-12-11T03:59:06;11.15;;;6.72;;
75191;SDS011;63771;52.580;9.734;2022-12-11T04:01:32;10.23;;;6.07;;
75191;SDS011;63771;52.580;9.734;2022-12-11T04:03:59;11.95;;;6.90;;
75191;SDS011;63771;52.580;9.734;2022-12-11T04:06:24;8.30;;;5.73;;
75191;SDS011;63771;52.580;9.734;2022-12-11T04:08:49;10.63;;;6.40;;
75191;SDS011;63771;52.580;9.734;2022-12-11T04:11:15;9.30;;;6.30;;
75191;SDS011;63771;52.580;9.734;2022-12-11T04:13:58;10.85;;;6.72;;
75191;SDS011;63771;52.580;9.734;2022-12-11T04:16:43;10.57;;;6.13;;
75191;SDS011;63771;52.580;9.734;2022-12-11T04:19:08;12.97;;;6.67;;
75191;SDS011;63771;52.580;9.734;2022-12-11T04:21:52;12.75;;;6.38;;
75191;SDS011;63771;52.580;9.734;2022-12-11T04:24:36;12.95;;;7.15;;
75191;SDS011;63771;52.580;9.734;2022-12-11T04:27:02;10.73;;;6.72;;
75191;SDS011;63771;52.580;9.734;2022-12-11T04:29:27;11.00;;;7.57;;
75191;SDS011;63771;52.580;9.734;2022-12-11T04:31:53;9.97;;;5.80;;
75191;SDS011;63771;52.580;9.734;2022-12-11T04:34:18;10.45;;;5.90;;
75191;SDS011;63771;52.580;9.734;2022-12-11T04:36:43;13.13;;;6.60;;
75191;SDS011;63771;52.580;9.734;2022-12-11T04:39:09;12.20;;;6.53;;
75191;SDS011;63771;52.580;9.734;2022-12-11T04:41:35;11.48;;;6.63;;
75191;SDS011;63771;52.580;9.734;2022-12-11T04:44:01;14.45;;;6.88;;
75191;SDS011;63771;52.580;9.734;2022-12-11T04:46:26;11.27;;;5.60;;
75191;SDS011;63771;52.580;9.734;2022-12-11T04:48:52;9.93;;;5.97;;
75191;SDS011;63771;52.580;9.734;2022-12-11T04:51:18;9.93;;;6.10;;
75191;SDS011;63771;52.580;9.734;2022-12-11T04:53:44;8.45;;;5.60;;
75191;SDS011;63771;52.580;9.734;2022-12-11T04:56:10;10.48;;;6.72;;
75191;SDS011;63771;52.580;9.734;2022-12-11T04:58:39;9.77;;;6.68;;
75191;SDS011;63771;52.580;9.734;2022-12-11T05:01:09;11.43;;;7.25;;
75191;SDS011;63771;52.580;9.734;2022-12-11T05:03:35;8.95;;;5.72;;
75191;SDS011;63771;52.580;9.734;2022-12-11T05:06:01;9.95;;;7.07;;
75191;SDS011;63771;52.580;9.734;2022-12-11T05:08:26;11.18;;;6.30;;
75191;SDS011;63771;52.580;9.734;2022-12-11T05:10:58;9.48;;;6.20;;
75191;SDS011;63771;52.580;9.734;2022-12-11T05:13:27;11.65;;;5.70;;
75191;SDS011;63771;52.580;9.734;2022-12-11T05:15:53;10.13;;;6.65;;
75191;SDS011;63771;52.580;9.734;2022-12-11T05:18:18;13.05;;;7.63;;
75191;SDS011;63771;52.580;9.734;2022-12-11T05:20:44;13.27;;;6.45;;
75191;SDS011;63771;52.580;9.734;2022-12-11T05:23:09;8.57;;;6.00;;
75191;SDS011;63771;52.580;9.734;2022-12-11T05:25:35;10.07;;;7.30;;
75191;SDS011;63771;52.580;9.734;2022-12-11T05:28:01;10.98;;;6.15;;
75191;SDS011;63771;52.580;9.734;2022-12-11T05:30:26;11.15;;;6.53;;
75191;SDS011;63771;52.580;9.734;2022-12-11T05:32:51;11.37;;;6.27;;
75191;SDS011;63771;52.580;9.734;2022-12-11T05:35:17;10.50;;;6.67;;
75191;SDS011;63771;52.580;9.734;2022-12-11T05:37:42;11.02;;;6.97;;
75191;SDS011;63771;52.580;9.734;2022-12-11T05:40:08;13.38;;;6.45;;
75191;SDS011;63771;52.580;9.734;2022-12-11T05:45:02;12.20;;;5.88;;
75191;SDS011;63771;52.580;9.734;2022-12-11T05:47:28;8.98;;;6.55;;
75191;SDS011;63771;52.580;9.734;2022-12-11T05:49:55;12.45;;;7.18;;
75191;SDS011;63771;52.580;9.734;2022-12-11T05:52:20;12.30;;;6.07;;
75191;SDS011;63771;52.580;9.734;2022-12-11T05:54:47;10.77;;;8.30;;
75191;SDS011;63771;52.580;9.734;2022-12-11T05:57:13;13.25;;;7.13;;
75191;SDS011;63771;52.580;9.734;2022-12-11T05:59:38;10.80;;;7.73;;
75191;SDS011;63771;52.580;9.734;2022-12-11T06:02:04;11.73;;;7.50;;
75191;SDS011;63771;52.580;9.734;2022-12-11T06:04:29;10.27;;;7.00;;
75191;SDS011;63771;52.580;9.734;2022-12-11T06:06:54;12.07;;;6.60;;
75191;SDS011;63771;52.580;9.734;2022-12-11T06:09:20;8.80;;;6.33;;
75191;SDS011;63771;52.580;9.734;2022-12-11T06:11:45;11.07;;;7.00;;
75191;SDS011;63771;52.580;9.734;2022-12-11T06:14:10;10.30;;;7.23;;
75191;SDS011;63771;52.580;9.734;2022-12-11T06:16:36;11.95;;;6.82;;
75191;SDS011;63771;52.580;9.734;2022-12-11T06:19:02;14.10;;;7.90;;
75191;SDS011;63771;52.580;9.734;2022-12-11T06:21:28;10.25;;;5.85;;
75191;SDS011;63771;52.580;9.734;2022-12-11T06:23:55;13.05;;;8.05;;
75191;SDS011;63771;52.580;9.734;2022-12-11T06:26:23;9.57;;;5.88;;
75191;SDS011;63771;52.580;9.734;2022-12-11T06:28:49;10.98;;;6.70;;
75191;SDS011;63771;52.580;9.734;2022-12-11T06:31:15;8.80;;;6.03;;
75191;SDS011;63771;52.580;9.734;2022-12-11T06:33:41;9.00;;;5.97;;
75191;SDS011;63771;52.580;9.734;2022-12-11T06:36:08;12.80;;;5.65;;
75191;SDS011;63771;52.580;9.734;2022-12-11T06:38:38;11.10;;;6.25;;
75191;SDS011;63771;52.580;9.734;2022-12-11T06:41:03;15.52;;;7.30;;
75191;SDS011;63771;52.580;9.734;2022-12-11T06:43:31;9.45;;;6.53;;
75191;SDS011;63771;52.580;9.734;2022-12-11T06:45:57;9.80;;;5.85;;
75191;SDS011;63771;52.580;9.734;2022-12-11T06:48:23;12.68;;;7.25;;
75191;SDS011;63771;52.580;9.734;2022-12-11T06:50:49;12.55;;;6.50;;
75191;SDS011;63771;52.580;9.734;2022-12-11T06:53:14;12.73;;;7.00;;
75191;SDS011;63771;52.580;9.734;2022-12-11T06:55:40;13.80;;;7.47;;
75191;SDS011;63771;52.580;9.734;2022-12-11T06:58:06;13.85;;;7.78;;
75191;SDS011;63771;52.580;9.734;2022-12-11T07:00:33;12.02;;;8.15;;
75191;SDS011;63771;52.580;9.734;2022-12-11T07:03:02;12.88;;;6.97;;
75191;SDS011;63771;52.580;9.734;2022-12-11T07:05:28;13.48;;;8.90;;
75191;SDS011;63771;52.580;9.734;2022-12-11T07:07:53;11.90;;;6.82;;
75191;SDS011;63771;52.580;9.734;2022-12-11T07:10:19;10.73;;;6.70;;
75191;SDS011;63771;52.580;9.734;2022-12-11T07:12:44;11.27;;;6.70;;
75191;SDS011;63771;52.580;9.734;2022-12-11T07:15:10;11.57;;;7.43;;
75191;SDS011;63771;52.580;9.734;2022-12-11T07:17:35;13.10;;;6.65;;
75191;SDS011;63771;52.580;9.734;2022-12-11T07:20:00;12.20;;;6.63;;
75191;SDS011;63771;52.580;9.734;2022-12-11T07:22:27;11.05;;;7.47;;
75191;SDS011;63771;52.580;9.734;2022-12-11T07:24:52;13.73;;;7.75;;
75191;SDS011;63771;52.580;9.734;2022-12-11T07:27:18;9.60;;;6.50;;
75191;SDS011;63771;52.580;9.734;2022-12-11T07:29:43;12.67;;;8.07;;
75191;SDS011;63771;52.580;9.734;2022-12-11T07:32:09;15.88;;;7.53;;
75191;SDS011;63771;52.580;9.734;2022-12-11T07:34:34;13.02;;;7.35;;
75191;SDS011;63771;52.580;9.734;2022-12-11T07:37:00;14.40;;;7.47;;
75191;SDS011;63771;52.580;9.734;2022-12-11T07:39:25;12.27;;;7.90;;
75191;SDS011;63771;52.580;9.734;2022-12-11T07:41:50;14.60;;;7.93;;
75191;SDS011;63771;52.580;9.734;2022-12-11T07:44:16;11.80;;;8.40;;
75191;SDS011;63771;52.580;9.734;2022-12-11T07:46:41;13.60;;;7.63;;
75191;SDS011;63771;52.580;9.734;2022-12-11T07:49:06;12.17;;;7.67;;
75191;SDS011;63771;52.580;9.734;2022-12-11T07:51:33;16.73;;;9.30;;
75191;SDS011;63771;52.580;9.734;2022-12-11T07:54:03;12.30;;;9.23;;
75191;SDS011;63771;52.580;9.734;2022-12-11T07:56:31;15.05;;;8.25;;
75191;SDS011;63771;52.580;9.734;2022-12-11T07:59:00;13.25;;;8.15;;
75191;SDS011;63771;52.580;9.734;2022-12-11T08:01:28;15.20;;;8.80;;
75191;SDS011;63771;52.580;9.734;2022-12-11T08:03:55;13.38;;;8.70;;
75191;SDS011;63771;52.580;9.734;2022-12-11T08:06:28;13.90;;;8.65;;
75191;SDS011;63771;52.580;9.734;2022-12-11T08:08:55;17.58;;;9.40;;
75191;SDS011;63771;52.580;9.734;2022-12-11T08:11:21;16.35;;;10.80;;
75191;SDS011;63771;52.580;9.734;2022-12-11T08:13:47;14.65;;;8.52;;
75191;SDS011;63771;52.580;9.734;2022-12-11T08:16:13;14.80;;;9.03;;
75191;SDS011;63771;52.580;9.734;2022-12-11T08:18:40;20.45;;;9.68;;
75191;SDS011;63771;52.580;9.734;2022-12-11T08:23:33;17.33;;;9.45;;
75191;SDS011;63771;52.580;9.734;2022-12-11T08:26:00;18.58;;;9.77;;
75191;SDS011;63771;52.580;9.734;2022-12-11T08:28:27;19.80;;;10.25;;
75191;SDS011;63771;52.580;9.734;2022-12-11T08:30:52;14.70;;;10.00;;
75191;SDS011;63771;52.580;9.734;2022-12-11T08:33:17;13.73;;;9.07;;
75191;SDS011;63771;52.580;9.734;2022-12-11T08:35:42;18.60;;;10.33;;
75191;SDS011;63771;52.580;9.734;2022-12-11T08:38:10;15.48;;;9.75;;
75191;SDS011;63771;52.580;9.734;2022-12-11T08:40:35;17.15;;;9.48;;
75191;SDS011;63771;52.580;9.734;2022-12-11T08:43:00;18.67;;;10.17;;
75191;SDS011;63771;52.580;9.734;2022-12-11T08:45:26;16.97;;;10.47;;
75191;SDS011;63771;52.580;9.734;2022-12-11T08:47:51;16.70;;;11.00;;
75191;SDS011;63771;52.580;9.734;2022-12-11T08:50:17;18.50;;;9.60;;
75191;SDS011;63771;52.580;9.734;2022-12-11T08:52:43;21.20;;;10.88;;
75191;SDS011;63771;52.580;9.734;2022-12-11T08:55:08;20.60;;;11.40;;
75191;SDS011;63771;52.580;9.734;2022-12-11T08:57:34;17.85;;;10.23;;
75191;SDS011;63771;52.580;9.734;2022-12-11T08:59:59;18.50;;;10.38;;
75191;SDS011;63771;52.580;9.734;2022-12-11T09:02:25;18.57;;;11.20;;
75191;SDS011;63771;52.580;9.734;2022-12-11T09:04:50;20.90;;;10.05;;
75191;SDS011;63771;52.580;9.734;2022-12-11T09:07:15;19.57;;;10.17;;
75191;SDS011;63771;52.580;9.734;2022-12-11T09:09:41;16.55;;;10.23;;
75191;SDS011;63771;52.580;9.734;2022-12-11T09:12:06;15.23;;;9.40;;
75191;SDS011;63771;52.580;9.734;2022-12-11T09:14:31;20.83;;;10.70;;
75191;SDS011;63771;52.580;9.734;2022-12-11T09:16:57;18.30;;;10.85;;
75191;SDS011;63771;52.580;9.734;2022-12-11T09:19:22;17.00;;;10.27;;
75191;SDS011;63771;52.580;9.734;2022-12-11T09:21:47;20.93;;;11.70;;
75191;SDS011;63771;52.580;9.734;2022-12-11T09:24:13;17.87;;;10.17;;
75191;SDS011;63771;52.580;9.734;2022-12-11T09:26:39;20.23;;;11.90;;
75191;SDS011;63771;52.580;9.734;2022-12-11T09:29:05;19.52;;;10.35;;
75191;SDS011;63771;52.580;9.734;2022-12-11T09:31:32;15.80;;;9.70;;
75191;SDS011;63771;52.580;9.734;2022-12-11T09:34:03;19.48;;;11.40;;
75191;SDS011;63771;52.580;9.734;2022-12-11T09:36:30;18.08;;;10.35;;
75191;SDS011;63771;52.580;9.734;2022-12-11T09:38:58;18.85;;;13.10;;
75191;SDS011;63771;52.580;9.734;2022-12-11T09:41:28;19.92;;;12.18;;
75191;SDS011;63771;52.580;9.734;2022-12-11T09:47:08;19.30;;;10.93;;
75191;SDS011;63771;52.580;9.734;2022-12-11T09:49:44;21.60;;;11.32;;
75191;SDS011;63771;52.580;9.734;2022-12-11T09:52:21;23.50;;;12.73;;
75191;SDS011;63771;52.580;9.734;2022-12-11T09:54:56;22.75;;;11.25;;
75191;SDS011;63771;52.580;9.734;2022-12-11T09:57:29;19.00;;;11.15;;
75191;SDS011;63771;52.580;9.734;2022-12-11T10:07:58;23.27;;;12.02;;
75191;SDS011;63771;52.580;9.734;2022-12-11T10:10:45;18.52;;;11.23;;
75191;SDS011;63771;52.580;9.734;2022-12-11T10:18:57;19.67;;;12.57;;
75191;SDS011;63771;52.580;9.734;2022-12-11T10:21:23;20.88;;;11.73;;
75191;SDS011;63771;52.580;9.734;2022-12-11T10:23:55;19.27;;;11.43;;
75191;SDS011;63771;52.580;9.734;2022-12-11T10:26:23;19.40;;;11.57;;
75191;SDS011;63771;52.580;9.734;2022-12-11T10:28:48;17.58;;;11.40;;
75191;SDS011;63771;52.580;9.734;2022-12-11T10:34:12;20.48;;;10.23;;
75191;SDS011;63771;52.580;9.734;2022-12-11T10:36:43;21.70;;;12.07;;
75191;SDS011;63771;52.580;9.734;2022-12-11T10:39:19;17.58;;;10.90;;
75191;SDS011;63771;52.580;9.734;2022-12-11T10:41:46;17.77;;;11.48;;
75191;SDS011;63771;52.580;9.734;2022-12-11T10:44:17;21.23;;;12.02;;
75191;SDS011;63771;52.580;9.734;2022-12-11T10:46:47;16.92;;;11.23;;
75191;SDS011;63771;52.580;9.734;2022-12-11T10:49:25;21.98;;;12.85;;
75191;SDS011;63771;52.580;9.734;2022-12-11T10:51:54;18.90;;;11.45;;
75191;SDS011;63771;52.580;9.734;2022-12-11T10:57:02;23.30;;;13.43;;
75191;SDS011;63771;52.580;9.734;2022-12-11T10:59:45;21.05;;;12.98;;
75191;SDS011;63771;52.580;9.734;2022-12-11T11:02:20;19.27;;;11.15;;
75191;SDS011;63771;52.580;9.734;2022-12-11T11:04:49;16.95;;;11.60;;
75191;SDS011;63771;52.580;9.734;2022-12-11T11:07:20;25.27;;;12.60;;
75191;SDS011;63771;52.580;9.734;2022-12-11T11:09:48;17.60;;;11.23;;
75191;SDS011;63771;52.580;9.734;2022-12-11T11:12:22;20.75;;;11.98;;
75191;SDS011;63771;52.580;9.734;2022-12-11T11:17:29;21.17;;;12.00;;
75191;SDS011;63771;52.580;9.734;2022-12-11T11:19:56;22.48;;;11.20;;
75191;SDS011;63771;52.580;9.734;2022-12-11T11:22:28;19.15;;;11.82;;
75191;SDS011;63771;52.580;9.734;2022-12-11T11:24:56;22.13;;;11.25;;
75191;SDS011;63771;52.580;9.734;2022-12-11T11:27:32;22.48;;;12.43;;
75191;SDS011;63771;52.580;9.734;2022-12-11T11:30:01;21.05;;;11.75;;
75191;SDS011;63771;52.580;9.734;2022-12-11T11:32:33;22.83;;;12.38;;
75191;SDS011;63771;52.580;9.734;2022-12-11T11:35:22;21.58;;;12.02;;
75191;SDS011;63771;52.580;9.734;2022-12-11T11:37:54;17.25;;;10.27;;
75191;SDS011;63771;52.580;9.734;2022-12-11T11:40:26;21.80;;;9.95;;
75191;SDS011;63771;52.580;9.734;2022-12-11T11:45:40;18.48;;;9.73;;
75191;SDS011;63771;52.580;9.734;2022-12-11T11:48:30;15.65;;;10.32;;
75191;SDS011;63771;52.580;9.734;2022-12-11T11:51:06;14.95;;;9.25;;
75191;SDS011;63771;52.580;9.734;2022-12-11T11:53:38;18.02;;;10.52;;
75191;SDS011;63771;52.580;9.734;2022-12-11T11:56:11;14.75;;;11.02;;
75191;SDS011;63771;52.580;9.734;2022-12-11T12:01:14;15.32;;;10.98;;
75191;SDS011;63771;52.580;9.734;2022-12-11T12:03:41;17.85;;;11.13;;
75191;SDS011;63771;52.580;9.734;2022-12-11T12:12:07;15.63;;;10.18;;
75191;SDS011;63771;52.580;9.734;2022-12-11T12:23:07;19.33;;;10.73;;
75191;SDS011;63771;52.580;9.734;2022-12-11T12:25:48;20.40;;;10.30;;
75191;SDS011;63771;52.580;9.734;2022-12-11T12:33:39;20.73;;;11.90;;
75191;SDS011;63771;52.580;9.734;2022-12-11T12:44:15;15.80;;;9.18;;
75191;SDS011;63771;52.580;9.734;2022-12-11T12:46:49;17.00;;;10.20;;
75191;SDS011;63771;52.580;9.734;2022-12-11T12:49:33;17.85;;;9.98;;
75191;SDS011;63771;52.580;9.734;2022-12-11T12:52:02;22.40;;;12.00;;
75191;SDS011;63771;52.580;9.734;2022-12-11T12:54:30;19.38;;;10.20;;
75191;SDS011;63771;52.580;9.734;2022-12-11T12:56:59;18.00;;;9.60;;
75191;SDS011;63771;52.580;9.734;2022-12-11T13:01:54;12.70;;;8.00;;
75191;SDS011;63771;52.580;9.734;2022-12-11T13:04:41;15.02;;;8.65;;
75191;SDS011;63771;52.580;9.734;2022-12-11T13:09:42;18.10;;;8.77;;
75191;SDS011;63771;52.580;9.734;2022-12-11T13:12:14;15.88;;;9.50;;
75191;SDS011;63771;52.580;9.734;2022-12-11T13:14:40;16.35;;;8.75;;
75191;SDS011;63771;52.580;9.734;2022-12-11T13:19:46;14.48;;;8.77;;
75191;SDS011;63771;52.580;9.734;2022-12-11T13:27:23;15.50;;;9.13;;
75191;SDS011;63771;52.580;9.734;2022-12-11T13:29:51;17.77;;;9.65;;
75191;SDS011;63771;52.580;9.734;2022-12-11T13:32:29;16.17;;;8.40;;
75191;SDS011;63771;52.580;9.734;2022-12-11T13:34:56;17.70;;;9.00;;
75191;SDS011;63771;52.580;9.734;2022-12-11T13:39:51;13.23;;;8.63;;
75191;SDS011;63771;52.580;9.734;2022-12-11T13:42:25;14.82;;;9.68;;
75191;SDS011;63771;52.580;9.734;2022-12-11T13:44:55;17.35;;;9.63;;
75191;SDS011;63771;52.580;9.734;2022-12-11T13:47:20;17.35;;;8.20;;
75191;SDS011;63771;52.580;9.734;2022-12-11T13:49:47;15.10;;;8.10;;
75191;SDS011;63771;52.580;9.734;2022-12-11T13:52:18;13.85;;;7.95;;
75191;SDS011;63771;52.580;9.734;2022-12-11T13:54:53;16.98;;;9.43;;
75191;SDS011;63771;52.580;9.734;2022-12-11T13:57:21;16.27;;;8.40;;
75191;SDS011;63771;52.580;9.734;2022-12-11T13:59:53;19.10;;;9.48;;
75191;SDS011;63771;52.580;9.734;2022-12-11T14:04:55;16.40;;;9.38;;
75191;SDS011;63771;52.580;9.734;2022-12-11T14:07:25;17.60;;;9.43;;
75191;SDS011;63771;52.580;9.734;2022-12-11T14:09:54;16.20;;;8.63;;
75191;SDS011;63771;52.580;9.734;2022-12-11T14:12:25;13.50;;;8.48;;
75191;SDS011;63771;52.580;9.734;2022-12-11T14:14:53;11.73;;;7.90;;
75191;SDS011;63771;52.580;9.734;2022-12-11T14:17:26;17.35;;;9.43;;
75191;SDS011;63771;52.580;9.734;2022-12-11T14:19:55;17.38;;;9.82;;
75191;SDS011;63771;52.580;9.734;2022-12-11T14:24:53;12.60;;;7.05;;
75191;SDS011;63771;52.580;9.734;2022-12-11T14:27:20;13.05;;;8.23;;
75191;SDS011;63771;52.580;9.734;2022-12-11T14:29:47;14.82;;;9.15;;
75191;SDS011;63771;52.580;9.734;2022-12-11T14:32:32;14.23;;;7.35;;
75191;SDS011;63771;52.580;9.734;2022-12-11T14:35:01;12.40;;;8.23;;
75191;SDS011;63771;52.580;9.734;2022-12-11T14:37:30;19.85;;;8.52;;
75191;SDS011;63771;52.580;9.734;2022-12-11T14:40:08;12.15;;;7.68;;
75191;SDS011;63771;52.580;9.734;2022-12-11T14:42:40;16.23;;;8.25;;
75191;SDS011;63771;52.580;9.734;2022-12-11T14:45:18;15.60;;;8.52;;
75191;SDS011;63771;52.580;9.734;2022-12-11T14:50:16;12.68;;;8.13;;
75191;SDS011;63771;52.580;9.734;2022-12-11T14:52:51;20.35;;;10.93;;
75191;SDS011;63771;52.580;9.734;2022-12-11T14:55:31;19.80;;;10.30;;
75191;SDS011;63771;52.580;9.734;2022-12-11T14:58:00;18.05;;;10.20;;
75191;SDS011;63771;52.580;9.734;2022-12-11T15:00:32;19.80;;;10.50;;
75191;SDS011;63771;52.580;9.734;2022-12-11T15:05:32;18.17;;;11.27;;
75191;SDS011;63771;52.580;9.734;2022-12-11T15:08:00;18.30;;;11.45;;
75191;SDS011;63771;52.580;9.734;2022-12-11T15:10:33;21.20;;;11.20;;
75191;SDS011;63771;52.580;9.734;2022-12-11T15:13:03;17.73;;;11.18;;
75191;SDS011;63771;52.580;9.734;2022-12-11T15:15:30;17.25;;;11.27;;
75191;SDS011;63771;52.580;9.734;2022-12-11T15:18:01;18.40;;;10.60;;
75191;SDS011;63771;52.580;9.734;2022-12-11T15:20:36;20.75;;;11.27;;
75191;SDS011;63771;52.580;9.734;2022-12-11T15:23:02;19.42;;;12.77;;
75191;SDS011;63771;52.580;9.734;2022-12-11T15:25:28;20.60;;;12.73;;
75191;SDS011;63771;52.580;9.734;2022-12-11T15:27:55;21.38;;;14.18;;
75191;SDS011;63771;52.580;9.734;2022-12-11T15:35:34;21.77;;;12.70;;
75191;SDS011;63771;52.580;9.734;2022-12-11T15:38:01;20.67;;;14.07;;
75191;SDS011;63771;52.580;9.734;2022-12-11T15:40:26;19.00;;;11.55;;
75191;SDS011;63771;52.580;9.734;2022-12-11T15:42:52;19.90;;;11.25;;
75191;SDS011;63771;52.580;9.734;2022-12-11T15:45:28;17.73;;;11.55;;
75191;SDS011;63771;52.580;9.734;2022-12-11T15:47:53;17.40;;;9.98;;
75191;SDS011;63771;52.580;9.734;2022-12-11T15:50:20;17.98;;;11.93;;
75191;SDS011;63771;52.580;9.734;2022-12-11T15:55:15;16.17;;;11.15;;
75191;SDS011;63771;52.580;9.734;2022-12-11T15:57:41;16.00;;;9.77;;
75191;SDS011;63771;52.580;9.734;2022-12-11T16:00:14;15.00;;;9.13;;
75191;SDS011;63771;52.580;9.734;2022-12-11T16:02:42;16.27;;;9.20;;
75191;SDS011;63771;52.580;9.734;2022-12-11T16:05:08;21.70;;;12.00;;
75191;SDS011;63771;52.580;9.734;2022-12-11T16:07:33;24.03;;;12.07;;
75191;SDS011;63771;52.580;9.734;2022-12-11T16:09:59;20.67;;;10.93;;
75191;SDS011;63771;52.580;9.734;2022-12-11T16:12:24;20.93;;;9.67;;
75191;SDS011;63771;52.580;9.734;2022-12-11T16:14:49;18.57;;;10.53;;
75191;SDS011;63771;52.580;9.734;2022-12-11T16:17:15;19.75;;;9.88;;
75191;SDS011;63771;52.580;9.734;2022-12-11T16:19:40;20.17;;;10.40;;
75191;SDS011;63771;52.580;9.734;2022-12-11T16:22:07;19.88;;;10.07;;
75191;SDS011;63771;52.580;9.734;2022-12-11T16:24:33;19.50;;;11.45;;
75191;SDS011;63771;52.580;9.734;2022-12-11T16:26:59;21.95;;;10.73;;
75191;SDS011;63771;52.580;9.734;2022-12-11T16:29:24;23.42;;;12.52;;